sensor_id;sensor_type;location;lat;lon;timestamp;pressure;altitude;pressure_sealevel;temperature;humidity
64352;BME280;50680;52.626;-8.668;2024-03-25T00:00:13;99709.84;;;10.78;100.00
64352;BME280;50680;52.626;-8.668;2024-03-25T00:02:40;99703.38;;;10.71;100.00
64352;BME280;50680;52.626;-8.668;2024-03-25T00:05:07;99686.44;;;10.64;100.00
64352;BME280;50680;52.626;-8.668;2024-03-25T00:07:37;99684.41;;;10.67;100.00
64352;BME280;50680;52.626;-8.668;2024-03-25T00:10:03;99687.63;;;10.71;100.00
64352;BME280;50680;52.626;-8.668;2024-03-25T00:12:29;99668.94;;;10.64;100.00
64352;BME280;50680;52.626;-8.668;2024-03-25T00:14:55;99669.88;;;10.63;100.00
64352;BME280;50680;52.626;-8.668;2024-03-25T00:17:20;99651.66;;;10.62;100.00
64352;BME280;50680;52.626;-8.668;2024-03-25T00:19:46;99649.63;;;10.65;100.00
64352;BME280;50680;52.626;-8.668;2024-03-25T00:22:20;99650.00;;;10.72;100.00
64352;BME280;50680;52.626;-8.668;2024-03-25T00:24:47;99641.75;;;10.65;100.00
64352;BME280;50680;52.626;-8.668;2024-03-25T00:27:14;99631.28;;;10.65;100.00
64352;BME280;50680;52.626;-8.668;2024-03-25T00:29:40;99620.19;;;10.62;100.00
64352;BME280;50680;52.626;-8.668;2024-03-25T00:32:06;99617.69;;;10.60;100.00
64352;BME280;50680;52.626;-8.668;2024-03-25T00:34:32;99607.22;;;10.60;100.00
64352;BME280;50680;52.626;-8.668;2024-03-25T00:36:59;99605.44;;;10.61;100.00
64352;BME280;50680;52.626;-8.668;2024-03-25T00:39:25;99597.59;;;10.61;100.00
64352;BME280;50680;52.626;-8.668;2024-03-25T00:41:54;99587.44;;;10.56;100.00
64352;BME280;50680;52.626;-8.668;2024-03-25T00:44:20;99570.16;;;10.53;100.00
64352;BME280;50680;52.626;-8.668;2024-03-25T00:46:46;99567.19;;;10.58;100.00
64352;BME280;50680;52.626;-8.668;2024-03-25T00:49:12;99561.13;;;10.58;100.00
64352;BME280;50680;52.626;-8.668;2024-03-25T00:51:38;99552.28;;;10.59;100.00
64352;BME280;50680;52.626;-8.668;2024-03-25T00:54:04;99531.59;;;10.56;100.00
64352;BME280;50680;52.626;-8.668;2024-03-25T00:56:31;99536.31;;;10.62;100.00
64352;BME280;50680;52.626;-8.668;2024-03-25T00:58:57;99534.91;;;10.58;100.00
64352;BME280;50680;52.626;-8.668;2024-03-25T01:01:24;99524.44;;;10.58;100.00
64352;BME280;50680;52.626;-8.668;2024-03-25T01:03:49;99520.25;;;10.55;100.00
64352;BME280;50680;52.626;-8.668;2024-03-25T01:06:15;99518.59;;;10.54;100.00
64352;BME280;50680;52.626;-8.668;2024-03-25T01:08:41;99521.09;;;10.56;100.00
64352;BME280;50680;52.626;-8.668;2024-03-25T01:11:07;99515.47;;;10.60;100.00
64352;BME280;50680;52.626;-8.668;2024-03-25T01:13:32;99513.94;;;10.58;100.00
64352;BME280;50680;52.626;-8.668;2024-03-25T01:15:58;99507.16;;;10.55;100.00
64352;BME280;50680;52.626;-8.668;2024-03-25T01:18:24;99500.84;;;10.58;100.00
64352;BME280;50680;52.626;-8.668;2024-03-25T01:20:50;99494.28;;;10.63;100.00
64352;BME280;50680;52.626;-8.668;2024-03-25T01:23:16;99493.91;;;10.68;100.00
64352;BME280;50680;52.626;-8.668;2024-03-25T01:25:41;99472.00;;;10.58;100.00
64352;BME280;50680;52.626;-8.668;2024-03-25T01:28:07;99473.44;;;10.62;100.00
64352;BME280;50680;52.626;-8.668;2024-03-25T01:30:33;99468.06;;;10.63;100.00
64352;BME280;50680;52.626;-8.668;2024-03-25T01:33:02;99454.47;;;10.69;100.00
64352;BME280;50680;52.626;-8.668;2024-03-25T01:35:28;99456.75;;;10.63;100.00
64352;BME280;50680;52.626;-8.668;2024-03-25T01:37:54;99438.41;;;10.63;100.00
64352;BME280;50680;52.626;-8.668;2024-03-25T01:40:19;99430.53;;;10.63;100.00
64352;BME280;50680;52.626;-8.668;2024-03-25T01:43:05;99433.47;;;10.81;100.00
64352;BME280;50680;52.626;-8.668;2024-03-25T01:45:35;99427.75;;;10.76;100.00
64352;BME280;50680;52.626;-8.668;2024-03-25T01:48:06;99420.00;;;10.74;100.00
64352;BME280;50680;52.626;-8.668;2024-03-25T01:50:37;99405.13;;;10.75;100.00
64352;BME280;50680;52.626;-8.668;2024-03-25T01:53:04;99397.63;;;10.70;100.00
64352;BME280;50680;52.626;-8.668;2024-03-25T01:55:32;99393.00;;;10.62;100.00
64352;BME280;50680;52.626;-8.668;2024-03-25T01:58:00;99381.63;;;10.52;100.00
64352;BME280;50680;52.626;-8.668;2024-03-25T02:00:27;99381.97;;;10.47;100.00
64352;BME280;50680;52.626;-8.668;2024-03-25T02:02:53;99373.63;;;10.53;100.00
64352;BME280;50680;52.626;-8.668;2024-03-25T02:05:20;99369.81;;;10.46;100.00
64352;BME280;50680;52.626;-8.668;2024-03-25T02:07:46;99367.91;;;10.48;100.00
64352;BME280;50680;52.626;-8.668;2024-03-25T02:10:12;99363.66;;;10.47;100.00
64352;BME280;50680;52.626;-8.668;2024-03-25T02:12:42;99351.69;;;10.54;100.00
64352;BME280;50680;52.626;-8.668;2024-03-25T02:15:09;99350.88;;;10.54;100.00
64352;BME280;50680;52.626;-8.668;2024-03-25T02:17:35;99341.34;;;10.53;100.00
64352;BME280;50680;52.626;-8.668;2024-03-25T02:20:02;99342.03;;;10.55;100.00
64352;BME280;50680;52.626;-8.668;2024-03-25T02:22:29;99332.91;;;10.49;100.00
64352;BME280;50680;52.626;-8.668;2024-03-25T02:24:57;99327.19;;;10.56;100.00
64352;BME280;50680;52.626;-8.668;2024-03-25T02:27:27;99325.00;;;10.61;100.00
64352;BME280;50680;52.626;-8.668;2024-03-25T02:29:54;99314.19;;;10.54;100.00
64352;BME280;50680;52.626;-8.668;2024-03-25T02:32:20;99306.69;;;10.49;100.00
64352;BME280;50680;52.626;-8.668;2024-03-25T02:34:52;99297.94;;;10.60;100.00
64352;BME280;50680;52.626;-8.668;2024-03-25T02:37:18;99291.91;;;10.48;100.00
64352;BME280;50680;52.626;-8.668;2024-03-25T02:39:44;99277.88;;;10.49;100.00
64352;BME280;50680;52.626;-8.668;2024-03-25T02:42:10;99282.66;;;10.44;100.00
64352;BME280;50680;52.626;-8.668;2024-03-25T02:44:36;99268.94;;;10.52;100.00
64352;BME280;50680;52.626;-8.668;2024-03-25T02:47:02;99272.63;;;10.49;100.00
64352;BME280;50680;52.626;-8.668;2024-03-25T02:49:29;99271.94;;;10.47;100.00
64352;BME280;50680;52.626;-8.668;2024-03-25T02:51:55;99259.78;;;10.46;100.00
64352;BME280;50680;52.626;-8.668;2024-03-25T02:54:21;99253.13;;;10.42;100.00
64352;BME280;50680;52.626;-8.668;2024-03-25T02:56:47;99239.59;;;10.37;100.00
64352;BME280;50680;52.626;-8.668;2024-03-25T02:59:13;99244.13;;;10.35;100.00
64352;BME280;50680;52.626;-8.668;2024-03-25T03:01:38;99235.56;;;10.33;100.00
64352;BME280;50680;52.626;-8.668;2024-03-25T03:04:04;99231.03;;;10.35;100.00
64352;BME280;50680;52.626;-8.668;2024-03-25T03:06:30;99230.75;;;10.38;100.00
64352;BME280;50680;52.626;-8.668;2024-03-25T03:08:56;99228.41;;;10.35;100.00
64352;BME280;50680;52.626;-8.668;2024-03-25T03:11:21;99213.16;;;10.29;100.00
64352;BME280;50680;52.626;-8.668;2024-03-25T03:13:47;99224.13;;;10.34;100.00
64352;BME280;50680;52.626;-8.668;2024-03-25T03:16:13;99207.56;;;10.33;100.00
64352;BME280;50680;52.626;-8.668;2024-03-25T03:18:39;99206.22;;;10.39;100.00
64352;BME280;50680;52.626;-8.668;2024-03-25T03:21:05;99196.97;;;10.35;100.00
64352;BME280;50680;52.626;-8.668;2024-03-25T03:23:31;99188.63;;;10.30;100.00
64352;BME280;50680;52.626;-8.668;2024-03-25T03:25:57;99183.88;;;10.35;100.00
64352;BME280;50680;52.626;-8.668;2024-03-25T03:28:25;99179.78;;;10.42;100.00
64352;BME280;50680;52.626;-8.668;2024-03-25T03:30:51;99180.03;;;10.39;100.00
64352;BME280;50680;52.626;-8.668;2024-03-25T03:33:17;99168.16;;;10.35;100.00
64352;BME280;50680;52.626;-8.668;2024-03-25T03:35:43;99170.50;;;10.38;100.00
64352;BME280;50680;52.626;-8.668;2024-03-25T03:38:08;99163.75;;;10.35;100.00
64352;BME280;50680;52.626;-8.668;2024-03-25T03:40:34;99162.63;;;10.38;100.00
64352;BME280;50680;52.626;-8.668;2024-03-25T03:43:00;99163.63;;;10.37;100.00
64352;BME280;50680;52.626;-8.668;2024-03-25T03:45:25;99151.34;;;10.38;100.00
64352;BME280;50680;52.626;-8.668;2024-03-25T03:47:51;99147.78;;;10.39;100.00
64352;BME280;50680;52.626;-8.668;2024-03-25T03:50:17;99144.31;;;10.38;100.00
64352;BME280;50680;52.626;-8.668;2024-03-25T03:52:43;99138.66;;;10.33;100.00
64352;BME280;50680;52.626;-8.668;2024-03-25T03:55:08;99131.72;;;10.32;100.00
64352;BME280;50680;52.626;-8.668;2024-03-25T03:57:34;99133.97;;;10.37;100.00
64352;BME280;50680;52.626;-8.668;2024-03-25T04:00:00;99139.06;;;10.38;100.00
64352;BME280;50680;52.626;-8.668;2024-03-25T04:02:27;99134.13;;;10.45;100.00
64352;BME280;50680;52.626;-8.668;2024-03-25T04:04:54;99136.19;;;10.41;100.00
64352;BME280;50680;52.626;-8.668;2024-03-25T04:07:20;99109.84;;;10.33;100.00
64352;BME280;50680;52.626;-8.668;2024-03-25T04:09:53;99125.34;;;10.46;100.00
64352;BME280;50680;52.626;-8.668;2024-03-25T04:12:19;99124.31;;;10.37;100.00
64352;BME280;50680;52.626;-8.668;2024-03-25T04:14:48;99118.16;;;10.48;100.00
64352;BME280;50680;52.626;-8.668;2024-03-25T04:17:14;99124.75;;;10.42;100.00
64352;BME280;50680;52.626;-8.668;2024-03-25T04:19:41;99130.25;;;10.39;100.00
64352;BME280;50680;52.626;-8.668;2024-03-25T04:22:07;99123.09;;;10.41;100.00
64352;BME280;50680;52.626;-8.668;2024-03-25T04:24:32;99120.47;;;10.41;100.00
64352;BME280;50680;52.626;-8.668;2024-03-25T04:27:00;99115.81;;;10.45;100.00
64352;BME280;50680;52.626;-8.668;2024-03-25T04:29:25;99117.28;;;10.38;100.00
64352;BME280;50680;52.626;-8.668;2024-03-25T04:31:51;99121.69;;;10.37;100.00
64352;BME280;50680;52.626;-8.668;2024-03-25T04:34:17;99118.63;;;10.32;100.00
64352;BME280;50680;52.626;-8.668;2024-03-25T04:36:42;99123.41;;;10.27;100.00
64352;BME280;50680;52.626;-8.668;2024-03-25T04:39:08;99117.84;;;10.20;100.00
64352;BME280;50680;52.626;-8.668;2024-03-25T04:41:37;99116.44;;;10.16;100.00
64352;BME280;50680;52.626;-8.668;2024-03-25T04:44:02;99118.75;;;10.09;100.00
64352;BME280;50680;52.626;-8.668;2024-03-25T04:46:28;99111.66;;;10.00;100.00
64352;BME280;50680;52.626;-8.668;2024-03-25T04:48:54;99105.97;;;9.95;100.00
64352;BME280;50680;52.626;-8.668;2024-03-25T04:51:20;99099.06;;;9.94;100.00
64352;BME280;50680;52.626;-8.668;2024-03-25T04:53:45;99100.00;;;9.93;100.00
64352;BME280;50680;52.626;-8.668;2024-03-25T04:56:11;99094.06;;;9.91;100.00
64352;BME280;50680;52.626;-8.668;2024-03-25T04:58:37;99085.53;;;9.89;100.00
64352;BME280;50680;52.626;-8.668;2024-03-25T05:01:04;99087.31;;;9.88;100.00
64352;BME280;50680;52.626;-8.668;2024-03-25T05:03:30;99087.56;;;9.85;100.00
64352;BME280;50680;52.626;-8.668;2024-03-25T05:05:55;99077.34;;;9.82;100.00
64352;BME280;50680;52.626;-8.668;2024-03-25T05:08:22;99073.31;;;9.78;100.00
64352;BME280;50680;52.626;-8.668;2024-03-25T05:10:48;99079.50;;;9.77;100.00
64352;BME280;50680;52.626;-8.668;2024-03-25T05:13:13;99075.09;;;9.77;100.00
64352;BME280;50680;52.626;-8.668;2024-03-25T05:15:39;99070.38;;;9.71;100.00
64352;BME280;50680;52.626;-8.668;2024-03-25T05:18:05;99073.69;;;9.73;100.00
64352;BME280;50680;52.626;-8.668;2024-03-25T05:20:31;99080.97;;;9.70;100.00
64352;BME280;50680;52.626;-8.668;2024-03-25T05:22:57;99077.78;;;9.66;100.00
64352;BME280;50680;52.626;-8.668;2024-03-25T05:25:23;99077.53;;;9.69;100.00
64352;BME280;50680;52.626;-8.668;2024-03-25T05:27:54;99074.47;;;9.64;100.00
64352;BME280;50680;52.626;-8.668;2024-03-25T05:30:19;99069.72;;;9.58;100.00
64352;BME280;50680;52.626;-8.668;2024-03-25T05:32:45;99060.34;;;9.55;100.00
64352;BME280;50680;52.626;-8.668;2024-03-25T05:35:11;99061.88;;;9.58;100.00
64352;BME280;50680;52.626;-8.668;2024-03-25T05:37:37;99060.47;;;9.54;100.00
64352;BME280;50680;52.626;-8.668;2024-03-25T05:40:03;99063.09;;;9.54;100.00
64352;BME280;50680;52.626;-8.668;2024-03-25T05:42:29;99057.97;;;9.52;100.00
64352;BME280;50680;52.626;-8.668;2024-03-25T05:44:54;99061.66;;;9.50;100.00
64352;BME280;50680;52.626;-8.668;2024-03-25T05:47:20;99064.09;;;9.41;100.00
64352;BME280;50680;52.626;-8.668;2024-03-25T05:49:46;99055.28;;;9.43;100.00
64352;BME280;50680;52.626;-8.668;2024-03-25T05:52:12;99045.81;;;9.30;100.00
64352;BME280;50680;52.626;-8.668;2024-03-25T05:54:38;99060.34;;;9.23;100.00
64352;BME280;50680;52.626;-8.668;2024-03-25T05:57:04;99046.91;;;9.16;100.00
64352;BME280;50680;52.626;-8.668;2024-03-25T05:59:29;99036.50;;;9.05;100.00
64352;BME280;50680;52.626;-8.668;2024-03-25T06:01:55;99022.63;;;8.93;100.00
64352;BME280;50680;52.626;-8.668;2024-03-25T06:04:21;99023.09;;;8.87;100.00
64352;BME280;50680;52.626;-8.668;2024-03-25T06:06:46;99033.69;;;8.85;100.00
64352;BME280;50680;52.626;-8.668;2024-03-25T06:09:12;99039.53;;;8.78;100.00
64352;BME280;50680;52.626;-8.668;2024-03-25T06:11:38;99035.00;;;8.80;100.00
64352;BME280;50680;52.626;-8.668;2024-03-25T06:14:04;99039.75;;;8.75;100.00
64352;BME280;50680;52.626;-8.668;2024-03-25T06:16:29;99034.88;;;8.70;100.00
64352;BME280;50680;52.626;-8.668;2024-03-25T06:18:55;99036.91;;;8.66;100.00
64352;BME280;50680;52.626;-8.668;2024-03-25T06:21:21;99032.78;;;8.64;100.00
64352;BME280;50680;52.626;-8.668;2024-03-25T06:23:47;99027.44;;;8.54;100.00
64352;BME280;50680;52.626;-8.668;2024-03-25T06:26:13;99021.72;;;8.49;100.00
64352;BME280;50680;52.626;-8.668;2024-03-25T06:28:39;99018.28;;;8.49;100.00
64352;BME280;50680;52.626;-8.668;2024-03-25T06:31:05;99014.13;;;8.46;100.00
64352;BME280;50680;52.626;-8.668;2024-03-25T06:34:00;99019.34;;;8.46;100.00
64352;BME280;50680;52.626;-8.668;2024-03-25T06:36:45;99007.03;;;8.48;100.00
64352;BME280;50680;52.626;-8.668;2024-03-25T06:39:11;99011.41;;;8.47;100.00
64352;BME280;50680;52.626;-8.668;2024-03-25T06:41:39;99010.34;;;8.50;100.00
64352;BME280;50680;52.626;-8.668;2024-03-25T06:44:05;99013.19;;;8.47;100.00
64352;BME280;50680;52.626;-8.668;2024-03-25T06:46:32;99028.97;;;8.57;100.00
64352;BME280;50680;52.626;-8.668;2024-03-25T06:48:58;99020.28;;;8.56;100.00
64352;BME280;50680;52.626;-8.668;2024-03-25T06:51:24;99014.84;;;8.59;100.00
64352;BME280;50680;52.626;-8.668;2024-03-25T06:53:49;99022.31;;;8.53;100.00
64352;BME280;50680;52.626;-8.668;2024-03-25T06:56:16;99026.38;;;8.57;100.00
64352;BME280;50680;52.626;-8.668;2024-03-25T06:58:42;99027.66;;;8.51;100.00
64352;BME280;50680;52.626;-8.668;2024-03-25T07:01:09;99032.66;;;8.54;100.00
64352;BME280;50680;52.626;-8.668;2024-03-25T07:03:38;99029.22;;;8.54;100.00
64352;BME280;50680;52.626;-8.668;2024-03-25T07:06:04;99023.06;;;8.55;100.00
64352;BME280;50680;52.626;-8.668;2024-03-25T07:08:31;99014.94;;;8.58;100.00
64352;BME280;50680;52.626;-8.668;2024-03-25T07:10:57;99015.91;;;8.57;100.00
64352;BME280;50680;52.626;-8.668;2024-03-25T07:13:23;99013.44;;;8.55;100.00
64352;BME280;50680;52.626;-8.668;2024-03-25T07:15:50;99005.59;;;8.55;100.00
64352;BME280;50680;52.626;-8.668;2024-03-25T07:18:17;99005.13;;;8.50;100.00
64352;BME280;50680;52.626;-8.668;2024-03-25T07:20:44;99010.00;;;8.55;100.00
64352;BME280;50680;52.626;-8.668;2024-03-25T07:23:09;98999.66;;;8.53;100.00
64352;BME280;50680;52.626;-8.668;2024-03-25T07:25:36;98993.84;;;8.50;100.00
64352;BME280;50680;52.626;-8.668;2024-03-25T07:28:02;98995.59;;;8.49;100.00
64352;BME280;50680;52.626;-8.668;2024-03-25T07:30:28;99000.25;;;8.45;100.00
64352;BME280;50680;52.626;-8.668;2024-03-25T07:32:55;99020.09;;;8.48;100.00
